createdAt,value
2019-04-21T00:01:50.659Z,10.00
2019-04-21T00:04:33.040Z,10.00
2019-04-21T00:07:09.923Z,10.00
2019-04-21T00:09:39.783Z,9.90
2019-04-21T00:12:08.939Z,9.90
2019-04-21T00:14:31.597Z,10.00
2019-04-21T00:16:56.113Z,9.90
2019-04-21T00:19:29.835Z,9.90
2019-04-21T00:22:08.615Z,9.90
2019-04-21T00:24:41.427Z,9.90
2019-04-21T00:27:11.181Z,9.90
2019-04-21T00:29:44.491Z,9.90
2019-04-21T00:32:10.100Z,9.80
2019-04-21T00:34:26.425Z,9.90
2019-04-21T00:37:08.508Z,9.90
2019-04-21T00:42:13.909Z,9.90
2019-04-21T00:44:38.118Z,9.80
2019-04-21T00:47:14.030Z,9.90
2019-04-21T00:49:45.338Z,9.90
2019-04-21T00:52:40.183Z,9.80
2019-04-21T00:55:10.108Z,9.90
2019-04-21T00:57:38.795Z,9.80
2019-04-21T01:00:04.474Z,9.80
2019-04-21T01:02:40.167Z,9.80
2019-04-21T01:05:04.857Z,9.80
2019-04-21T01:07:31.909Z,9.70
2019-04-21T01:09:54.060Z,9.70
2019-04-21T01:12:33.473Z,9.70
2019-04-21T01:15:03.811Z,9.70
2019-04-21T01:17:31.169Z,9.70
2019-04-21T01:19:59.616Z,9.70
2019-04-21T01:22:11.226Z,9.70
2019-04-21T01:24:43.775Z,9.60
2019-04-21T01:27:18.652Z,9.70
2019-04-21T01:30:02.857Z,9.60
2019-04-21T01:32:29.267Z,9.60
2019-04-21T01:35:02.690Z,9.60
2019-04-21T01:37:39.931Z,9.60
2019-04-21T01:40:14.352Z,9.60
2019-04-21T01:42:33.299Z,9.60
2019-04-21T01:44:59.916Z,9.60
2019-04-21T01:47:26.189Z,9.60
2019-04-21T01:49:53.297Z,9.60
2019-04-21T01:52:50.231Z,9.60
2019-04-21T01:55:06.249Z,9.60
2019-04-21T01:57:34.509Z,9.60
2019-04-21T01:59:58.659Z,9.60
2019-04-21T02:02:36.108Z,9.50
2019-04-21T02:05:10.494Z,9.60
2019-04-21T02:07:38.966Z,9.50
2019-04-21T02:10:11.233Z,9.60
2019-04-21T02:12:40.620Z,9.50
2019-04-21T02:15:14.285Z,9.50
2019-04-21T02:17:40.692Z,9.40
2019-04-21T02:20:05.403Z,9.40
2019-04-21T02:22:58.759Z,9.30
2019-04-21T02:25:13.983Z,9.30
2019-04-21T02:27:42.957Z,9.20
2019-04-21T02:30:23.613Z,9.10
2019-04-21T02:33:05.926Z,9.10
2019-04-21T02:35:30.565Z,9.00
2019-04-21T02:40:25.639Z,8.90
2019-04-21T02:42:57.751Z,8.90
2019-04-21T02:45:22.897Z,8.80
2019-04-21T02:47:57.307Z,8.70
2019-04-21T02:52:55.535Z,8.60
2019-04-21T02:55:22.023Z,8.60
2019-04-21T02:58:04.357Z,8.50
2019-04-21T03:03:16.116Z,8.40
2019-04-21T03:06:15.346Z,8.30
2019-04-21T03:16:11.818Z,8.30
2019-04-21T03:26:14.348Z,8.30
2019-04-21T03:28:37.092Z,8.40
2019-04-21T03:31:35.984Z,8.40
2019-04-21T03:36:33.344Z,8.50
2019-04-21T03:41:04.180Z,8.50
2019-04-21T03:43:34.851Z,8.50
2019-04-21T03:46:26.604Z,8.50
2019-04-21T03:48:38.504Z,8.50
2019-04-21T03:51:02.656Z,8.50
2019-04-21T03:53:40.443Z,8.50
2019-04-21T03:56:01.347Z,8.60
2019-04-21T03:58:46.814Z,8.50
2019-04-21T04:01:07.821Z,8.50
2019-04-21T04:04:06.266Z,8.50
2019-04-21T04:06:45.098Z,8.50
2019-04-21T04:11:44.179Z,8.60
2019-04-21T04:16:50.392Z,8.70
2019-04-21T04:19:06.136Z,8.70
2019-04-21T04:21:47.695Z,8.80
2019-04-21T04:24:16.867Z,8.90
2019-04-21T04:26:53.504Z,8.90
2019-04-21T04:29:12.512Z,8.90
2019-04-21T04:31:53.505Z,8.80
2019-04-21T04:34:12.605Z,8.80
2019-04-21T04:39:35.838Z,8.90
2019-04-21T04:47:04.754Z,8.80
2019-04-21T04:49:40.067Z,8.80
2019-04-21T04:52:12.294Z,8.80
2019-04-21T04:54:32.354Z,8.80
2019-04-21T04:56:58.960Z,8.80
2019-04-21T04:59:33.667Z,8.80
2019-04-21T05:04:28.327Z,8.80
2019-04-21T05:09:24.593Z,8.80
2019-04-21T05:11:50.595Z,8.80
2019-04-21T05:14:21.505Z,8.80
2019-04-21T05:21:43.908Z,8.90
2019-04-21T05:24:13.805Z,8.90
2019-04-21T05:26:45.973Z,8.90
2019-04-21T05:29:09.018Z,8.90
2019-04-21T05:32:00.431Z,9.00
2019-04-21T05:34:27.667Z,9.00
2019-04-21T05:37:00.953Z,9.00
2019-04-21T05:39:40.978Z,8.90
2019-04-21T05:42:03.950Z,9.00
2019-04-21T05:45:00.202Z,9.00
2019-04-21T05:47:24.976Z,9.00
2019-04-21T05:49:48.245Z,9.00
2019-04-21T05:52:14.567Z,9.00
2019-04-21T05:57:14.401Z,9.00
2019-04-21T05:59:51.488Z,9.10
2019-04-21T06:02:23.671Z,9.10
2019-04-21T06:07:23.148Z,9.10
2019-04-21T06:09:57.211Z,9.20
2019-04-21T06:12:21.171Z,9.20
2019-04-21T06:14:55.895Z,9.30
2019-04-21T06:17:29.785Z,9.40
2019-04-21T06:19:57.235Z,9.40
2019-04-21T06:22:22.406Z,9.50
2019-04-21T06:25:23.898Z,9.50
2019-04-21T06:27:29.862Z,9.60
2019-04-21T06:29:54.705Z,9.60
2019-04-21T06:32:38.170Z,9.60
2019-04-21T06:37:39.625Z,9.70
2019-04-21T06:40:07.661Z,9.70
2019-04-21T06:42:26.675Z,9.80
2019-04-21T06:45:01.881Z,9.80
2019-04-21T06:47:30.011Z,9.80
2019-04-21T06:49:58.916Z,9.90
2019-04-21T06:52:45.602Z,9.90
2019-04-21T06:55:02.503Z,9.90
2019-04-21T06:57:28.954Z,9.90
2019-04-21T06:59:55.609Z,9.90
2019-04-21T07:05:00.248Z,10.00
2019-04-21T07:07:27.769Z,10.00
2019-04-21T07:10:06.877Z,10.10
2019-04-21T07:12:28.943Z,10.10
2019-04-21T07:14:59.278Z,10.10
2019-04-21T07:17:30.547Z,10.10
2019-04-21T07:20:02.421Z,10.10
2019-04-21T07:22:31.237Z,10.10
2019-04-21T07:25:03.112Z,10.20
2019-04-21T07:27:31.851Z,10.30
2019-04-21T07:30:04.928Z,10.30
2019-04-21T07:32:40.147Z,10.30
2019-04-21T07:35:03.881Z,10.40
2019-04-21T07:37:33.249Z,10.50
2019-04-21T07:39:54.581Z,10.40
2019-04-21T07:42:26.684Z,10.40
2019-04-21T07:44:53.455Z,10.30
2019-04-21T07:47:28.450Z,10.30
2019-04-21T07:50:00.619Z,10.40
2019-04-21T07:52:58.159Z,10.50
2019-04-21T07:57:34.487Z,10.60
2019-04-21T08:00:16.111Z,10.70
2019-04-21T08:02:34.294Z,10.80
2019-04-21T08:07:48.023Z,11.00
2019-04-21T08:10:07.934Z,11.20
2019-04-21T08:12:29.923Z,11.20
2019-04-21T08:15:16.903Z,11.30
2019-04-21T08:17:36.648Z,11.40
2019-04-21T08:20:09.246Z,11.50
2019-04-21T08:22:41.361Z,11.50
2019-04-21T08:25:11.248Z,11.60
2019-04-21T08:27:45.796Z,11.60
2019-04-21T08:30:08.987Z,11.70
2019-04-21T08:32:57.117Z,11.80
2019-04-21T08:35:51.046Z,11.90
2019-04-21T08:37:39.659Z,12.00
2019-04-21T08:40:09.868Z,12.00
2019-04-21T08:42:38.614Z,12.00
2019-04-21T08:45:10.742Z,12.10
2019-04-21T08:47:39.714Z,12.10
2019-04-21T08:50:08.279Z,12.10
2019-04-21T08:52:44.353Z,12.20
2019-04-21T08:55:22.540Z,12.20
2019-04-21T08:58:08.470Z,12.20
2019-04-21T09:00:36.758Z,12.30
2019-04-21T09:03:02.552Z,12.30
2019-04-21T09:05:31.220Z,12.30
2019-04-21T09:07:57.377Z,12.40
2019-04-21T09:10:28.360Z,12.50
2019-04-21T09:13:00.147Z,12.50
2019-04-21T09:15:31.158Z,12.70
2019-04-21T09:17:53.670Z,12.70
2019-04-21T09:20:33.778Z,12.80
2019-04-21T09:23:04.662Z,12.80
2019-04-21T09:25:35.995Z,12.80
2019-04-21T09:28:00.655Z,12.90
2019-04-21T09:30:13.022Z,13.00
2019-04-21T09:32:42.481Z,13.10
2019-04-21T09:35:14.799Z,13.10
2019-04-21T09:37:51.653Z,13.10
2019-04-21T09:40:13.220Z,13.10
2019-04-21T09:42:50.577Z,13.10
2019-04-21T09:45:13.615Z,13.20
2019-04-21T09:47:51.023Z,13.20
2019-04-21T09:50:13.447Z,13.30
2019-04-21T09:52:52.269Z,13.50
2019-04-21T09:55:17.496Z,13.60
2019-04-21T09:57:48.511Z,13.70
2019-04-21T10:00:19.511Z,13.90
2019-04-21T10:02:54.414Z,13.90
2019-04-21T10:05:14.436Z,14.00
2019-04-21T10:07:44.251Z,13.90
2019-04-21T10:10:13.012Z,13.90
2019-04-21T10:12:41.610Z,14.00
2019-04-21T10:15:10.666Z,14.00
2019-04-21T10:17:41.782Z,14.00
2019-04-21T10:20:11.699Z,13.90
2019-04-21T10:22:41.344Z,13.90
2019-04-21T10:25:10.569Z,14.00
2019-04-21T10:27:39.338Z,14.20
2019-04-21T10:30:11.981Z,14.40
2019-04-21T10:32:40.726Z,14.40
2019-04-21T10:35:10.940Z,14.50
2019-04-21T10:37:52.666Z,14.50
2019-04-21T10:40:11.761Z,14.60
2019-04-21T10:42:40.621Z,14.60
2019-04-21T10:45:10.406Z,14.60
2019-04-21T10:47:39.298Z,14.70
2019-04-21T10:50:08.758Z,14.70
2019-04-21T10:52:55.229Z,14.80
2019-04-21T10:55:42.715Z,14.70
2019-04-21T10:58:10.682Z,14.80
2019-04-21T11:00:42.010Z,14.80
2019-04-21T11:03:29.131Z,14.90
2019-04-21T11:06:08.667Z,15.00
2019-04-21T11:08:41.508Z,15.00
2019-04-21T11:11:07.998Z,15.00
2019-04-21T11:13:36.923Z,14.90
2019-04-21T11:16:05.595Z,14.80
2019-04-21T11:18:34.099Z,14.80
2019-04-21T11:21:03.001Z,14.80
2019-04-21T11:23:33.095Z,14.70
2019-04-21T11:26:02.264Z,14.80
2019-04-21T11:28:31.212Z,14.80
2019-04-21T11:31:00.607Z,14.80
2019-04-21T11:33:29.337Z,14.80
2019-04-21T11:35:57.870Z,14.90
2019-04-21T11:38:33.494Z,14.90
2019-04-21T11:41:01.109Z,14.90
2019-04-21T11:43:30.711Z,15.00
2019-04-21T11:46:00.196Z,15.20
2019-04-21T11:48:30.423Z,15.20
2019-04-21T11:50:59.386Z,15.30
2019-04-21T11:53:28.743Z,15.50
2019-04-21T11:55:58.588Z,15.60
2019-04-21T11:58:27.838Z,15.70
2019-04-21T12:00:58.345Z,15.70
2019-04-21T12:03:27.517Z,15.60
2019-04-21T12:05:57.381Z,15.30
2019-04-21T12:08:34.359Z,15.10
2019-04-21T12:10:57.609Z,15.00
2019-04-21T12:13:26.195Z,14.80
2019-04-21T12:15:54.947Z,14.60
2019-04-21T12:18:26.347Z,14.50
2019-04-21T12:20:53.764Z,14.50
2019-04-21T12:23:22.648Z,14.60
2019-04-21T12:25:51.674Z,14.60
2019-04-21T12:28:21.777Z,14.80
2019-04-21T12:30:53.642Z,15.10
2019-04-21T12:33:27.916Z,15.40
2019-04-21T12:35:57.717Z,15.70
2019-04-21T12:38:35.359Z,15.90
2019-04-21T12:40:56.902Z,15.90
2019-04-21T12:43:26.456Z,16.00
2019-04-21T12:45:55.890Z,15.90
2019-04-21T12:48:24.458Z,15.80
2019-04-21T12:50:54.222Z,15.80
2019-04-21T12:53:23.528Z,15.80
2019-04-21T12:55:53.693Z,15.90
2019-04-21T12:58:23.521Z,16.00
2019-04-21T13:00:52.189Z,16.10
2019-04-21T13:03:23.306Z,16.40
2019-04-21T13:05:51.701Z,16.80
2019-04-21T13:08:21.685Z,16.90
2019-04-21T13:10:51.865Z,17.10
2019-04-21T13:13:21.864Z,17.00
2019-04-21T13:15:51.671Z,17.00
2019-04-21T13:18:20.579Z,17.30
2019-04-21T13:20:49.234Z,18.00
2019-04-21T13:23:18.901Z,19.00
2019-04-21T13:25:47.914Z,19.90
2019-04-21T13:28:16.647Z,20.30
2019-04-21T13:30:46.309Z,20.70
2019-04-21T13:33:15.444Z,21.20
2019-04-21T13:35:44.801Z,21.50
2019-04-21T13:38:25.925Z,22.00
2019-04-21T13:41:03.894Z,22.10
2019-04-21T13:43:15.291Z,21.90
2019-04-21T13:45:44.033Z,22.30
2019-04-21T13:48:12.748Z,22.70
2019-04-21T13:50:43.525Z,22.90
2019-04-21T13:53:12.475Z,23.00
2019-04-21T13:55:42.511Z,23.20
2019-04-21T13:58:12.470Z,23.30
2019-04-21T14:00:42.054Z,23.30
2019-04-21T14:03:10.723Z,23.70
2019-04-21T14:05:42.346Z,23.90
2019-04-21T14:08:11.349Z,24.00
2019-04-21T14:10:40.034Z,24.10
2019-04-21T14:13:08.710Z,23.80
2019-04-21T14:15:37.856Z,23.30
2019-04-21T14:18:06.881Z,23.20
2019-04-21T14:20:35.630Z,23.30
2019-04-21T14:23:15.645Z,23.30
2019-04-21T14:25:35.514Z,23.40
2019-04-21T14:28:06.112Z,23.60
2019-04-21T14:30:36.398Z,24.10
2019-04-21T14:33:05.276Z,24.60
2019-04-21T14:35:34.816Z,24.60
2019-04-21T14:38:04.832Z,23.90
2019-04-21T14:40:35.190Z,23.90
2019-04-21T14:43:03.981Z,23.90
2019-04-21T14:45:50.563Z,23.70
2019-04-21T14:48:37.078Z,23.30
2019-04-21T14:51:09.175Z,23.20
2019-04-21T14:53:43.628Z,23.10
2019-04-21T14:56:13.268Z,22.80
2019-04-21T14:58:43.217Z,22.40
2019-04-21T15:01:11.802Z,22.40
2019-04-21T15:03:41.599Z,22.20
2019-04-21T15:06:11.521Z,22.10
2019-04-21T15:08:40.362Z,21.60
2019-04-21T15:11:09.539Z,21.00
2019-04-21T15:13:39.616Z,20.50
2019-04-21T15:16:08.943Z,20.30
2019-04-21T15:18:38.895Z,20.00
2019-04-21T15:21:07.885Z,19.70
2019-04-21T15:23:36.571Z,19.30
2019-04-21T15:26:06.093Z,19.10
2019-04-21T15:28:37.265Z,18.60
2019-04-21T15:31:05.121Z,18.20
2019-04-21T15:33:34.849Z,18.20
2019-04-21T15:36:04.965Z,18.00
2019-04-21T15:38:34.026Z,17.80
2019-04-21T15:41:06.426Z,17.70
2019-04-21T15:43:33.477Z,17.70
2019-04-21T15:46:02.621Z,17.90
2019-04-21T15:48:31.287Z,17.80
2019-04-21T15:51:04.864Z,17.70
2019-04-21T15:53:31.989Z,17.70
2019-04-21T15:56:08.825Z,17.50
2019-04-21T15:58:48.425Z,17.30
2019-04-21T16:01:32.412Z,17.20
2019-04-21T16:04:02.810Z,16.80
2019-04-21T16:06:31.923Z,16.50
2019-04-21T16:09:02.874Z,16.30
2019-04-21T16:11:31.700Z,16.30
2019-04-21T16:14:01.849Z,16.30
2019-04-21T16:16:32.343Z,16.40
2019-04-21T16:19:01.007Z,16.40
2019-04-21T16:21:29.708Z,16.30
2019-04-21T16:23:58.450Z,16.20
2019-04-21T16:26:28.692Z,16.20
2019-04-21T16:28:57.526Z,16.30
2019-04-21T16:31:26.211Z,16.40
2019-04-21T16:33:55.003Z,16.50
2019-04-21T16:36:23.691Z,16.50
2019-04-21T16:38:53.596Z,16.40
2019-04-21T16:41:22.475Z,16.40
2019-04-21T16:43:51.402Z,16.30
2019-04-21T16:46:21.133Z,16.10
2019-04-21T16:48:51.579Z,15.90
2019-04-21T16:51:20.453Z,15.70
2019-04-21T16:53:56.061Z,15.50
2019-04-21T16:56:26.934Z,15.40
2019-04-21T16:58:57.257Z,15.40
2019-04-21T17:01:29.585Z,15.20
2019-04-21T17:03:58.351Z,15.10
2019-04-21T17:06:27.124Z,15.00
2019-04-21T17:08:56.769Z,14.90
2019-04-21T17:11:30.416Z,14.70
2019-04-21T17:13:56.621Z,14.60
2019-04-21T17:16:50.810Z,14.50
2019-04-21T17:19:05.299Z,14.40
2019-04-21T17:21:28.068Z,14.40
2019-04-21T17:23:56.771Z,14.30
2019-04-21T17:26:25.262Z,14.30
2019-04-21T17:28:54.315Z,14.20
2019-04-21T17:31:24.481Z,14.10
2019-04-21T17:34:02.052Z,14.00
2019-04-21T17:36:25.083Z,13.90
2019-04-21T17:38:54.113Z,13.90
2019-04-21T17:41:33.372Z,13.80
2019-04-21T17:43:56.043Z,13.80
2019-04-21T17:46:34.527Z,13.70
2019-04-21T17:48:54.974Z,13.70
2019-04-21T17:51:31.932Z,13.70
2019-04-21T17:54:03.070Z,13.60
2019-04-21T17:56:59.638Z,13.70
2019-04-21T17:59:28.006Z,13.70
2019-04-21T18:01:54.540Z,13.60
2019-04-21T18:04:24.327Z,13.60
2019-04-21T18:06:56.508Z,13.50
2019-04-21T18:09:36.761Z,13.40
2019-04-21T18:12:06.835Z,13.20
2019-04-21T18:14:13.684Z,13.10
2019-04-21T18:16:46.213Z,13.10
2019-04-21T18:19:12.992Z,13.00
2019-04-21T18:21:56.811Z,13.00
2019-04-21T18:24:35.315Z,12.90
2019-04-21T18:26:57.313Z,12.90
2019-04-21T18:29:23.990Z,12.80
2019-04-21T18:31:54.202Z,12.70
2019-04-21T18:34:29.264Z,12.60
2019-04-21T18:37:04.579Z,12.60
2019-04-21T18:39:46.434Z,12.60
2019-04-21T18:42:26.292Z,12.60
2019-04-21T18:45:22.415Z,12.60
2019-04-21T18:47:28.641Z,12.60
2019-04-21T18:49:44.127Z,12.60
2019-04-21T18:52:22.458Z,12.50
2019-04-21T18:55:00.157Z,12.40
2019-04-21T18:57:22.842Z,12.40
2019-04-21T18:59:47.078Z,12.40
2019-04-21T19:02:18.086Z,12.30
2019-04-21T19:04:44.967Z,12.30
2019-04-21T19:07:25.247Z,12.20
2019-04-21T19:12:50.740Z,12.10
2019-04-21T19:14:57.904Z,12.10
2019-04-21T19:20:24.163Z,12.10
2019-04-21T19:22:34.581Z,12.10
2019-04-21T19:25:07.287Z,12.10
2019-04-21T19:27:31.013Z,12.20
2019-04-21T19:32:33.582Z,12.20
2019-04-21T19:34:48.556Z,12.10
2019-04-21T19:37:20.904Z,12.20
2019-04-21T19:40:00.379Z,12.10
2019-04-21T19:42:25.599Z,12.10
2019-04-21T19:45:03.671Z,12.10
2019-04-21T19:47:42.914Z,12.10
2019-04-21T19:50:08.104Z,12.10
2019-04-21T19:52:31.979Z,12.10
2019-04-21T19:54:50.468Z,12.10
2019-04-21T19:57:18.801Z,12.10
2019-04-21T19:59:51.133Z,12.10
2019-04-21T20:02:18.645Z,12.10
2019-04-21T20:04:54.223Z,12.10
2019-04-21T20:07:32.891Z,12.10
2019-04-21T20:10:11.707Z,12.00
2019-04-21T20:12:40.126Z,12.00
2019-04-21T20:15:16.724Z,12.10
2019-04-21T20:17:36.521Z,12.10
2019-04-21T20:19:48.296Z,12.00
2019-04-21T20:22:16.875Z,12.00
2019-04-21T20:24:53.921Z,12.00
2019-04-21T20:27:24.068Z,12.00
2019-04-21T20:30:01.769Z,11.90
2019-04-21T20:32:36.687Z,11.90
2019-04-21T20:35:06.749Z,11.90
2019-04-21T20:37:32.101Z,11.80
2019-04-21T20:39:54.917Z,11.80
2019-04-21T20:42:27.966Z,11.80
2019-04-21T20:45:22.045Z,11.80
2019-04-21T20:47:27.184Z,11.70
2019-04-21T20:50:03.353Z,11.80
2019-04-21T20:52:36.971Z,11.80
2019-04-21T20:55:02.189Z,11.80
2019-04-21T20:57:30.160Z,11.80
2019-04-21T21:00:05.796Z,11.80
2019-04-21T21:02:37.179Z,11.70
2019-04-21T21:04:57.172Z,11.60
2019-04-21T21:07:44.195Z,11.60
2019-04-21T21:10:11.978Z,11.60
2019-04-21T21:12:47.357Z,11.60
2019-04-21T21:15:00.121Z,11.60
2019-04-21T21:17:45.471Z,11.60
2019-04-21T21:20:14.512Z,11.60
2019-04-21T21:22:36.733Z,11.60
2019-04-21T21:25:13.171Z,11.60
2019-04-21T21:27:32.237Z,11.60
2019-04-21T21:30:05.889Z,11.60
2019-04-21T21:32:37.375Z,11.60
2019-04-21T21:35:08.322Z,11.60
2019-04-21T21:37:42.624Z,11.50
2019-04-21T21:40:09.421Z,11.50
2019-04-21T21:42:26.481Z,11.50
2019-04-21T21:45:00.446Z,11.50
2019-04-21T21:47:39.363Z,11.40
2019-04-21T21:50:04.355Z,11.40
2019-04-21T21:52:36.675Z,11.40
2019-04-21T21:54:53.852Z,11.40
2019-04-21T21:57:22.913Z,11.30
2019-04-21T21:59:58.797Z,11.30
2019-04-21T22:02:31.902Z,11.20
2019-04-21T22:05:01.098Z,11.20
2019-04-21T22:07:24.847Z,11.20
2019-04-21T22:09:52.388Z,11.20
2019-04-21T22:12:22.100Z,11.20
2019-04-21T22:14:53.563Z,11.20
2019-04-21T22:17:36.776Z,11.20
2019-04-21T22:20:08.125Z,11.10
2019-04-21T22:22:32.780Z,11.10
2019-04-21T22:25:02.713Z,11.10
2019-04-21T22:27:21.548Z,11.10
2019-04-21T22:29:56.520Z,11.10
2019-04-21T22:32:26.639Z,11.10
2019-04-21T22:34:56.458Z,11.10
2019-04-21T22:37:33.858Z,11.00
2019-04-21T22:40:07.130Z,11.10
2019-04-21T22:42:27.089Z,11.10
2019-04-21T22:44:52.324Z,11.00
2019-04-21T22:47:26.936Z,11.10
2019-04-21T22:49:52.637Z,11.10
2019-04-21T22:52:26.075Z,11.00
2019-04-21T22:54:52.680Z,11.00
2019-04-21T22:57:24.878Z,11.00
2019-04-21T22:59:59.360Z,11.00
2019-04-21T23:02:27.967Z,10.90
2019-04-21T23:04:57.701Z,10.80
2019-04-21T23:07:25.830Z,10.80
2019-04-21T23:09:53.506Z,10.80
2019-04-21T23:12:28.216Z,10.80
2019-04-21T23:15:01.874Z,10.80
2019-04-21T23:17:37.854Z,10.80
2019-04-21T23:20:14.526Z,10.80
2019-04-21T23:22:51.352Z,10.80
2019-04-21T23:25:13.325Z,10.80
2019-04-21T23:27:40.610Z,10.70
2019-04-21T23:30:19.959Z,10.70
2019-04-21T23:32:33.845Z,10.70
2019-04-21T23:34:55.391Z,10.70
2019-04-21T23:37:25.588Z,10.70
2019-04-21T23:40:05.191Z,10.70
2019-04-21T23:42:32.797Z,10.70
2019-04-21T23:44:58.068Z,10.70
2019-04-21T23:47:37.009Z,10.70
2019-04-21T23:50:02.757Z,10.60
2019-04-21T23:52:25.512Z,10.60
2019-04-21T23:54:55.539Z,10.60
2019-04-21T23:57:30.428Z,10.50
2019-04-21T23:59:57.146Z,10.50
